KEOK/EOK METAR and TAF weather

Enter ICAO airport designator
Station Type Date Time Source
KEOK METAR 2022/08/16 18:15 UTC NOAA

KEOK 161815Z AUTO 07010KT 10SM SCT034 SCT042 25/18 A3008 RMK A01


Station Type Date Time Source
KEOK Decoded METAR 2022/08/16 18:15 UTC NOAA

Keokuk Municipal, IA, United States (KEOK) 40-28N 091-26W
Aug 16, 2022 - 02:15 PM EDT / 2022.08.16 1815 UTC
Wind: from the ENE (070 degrees) at 12 MPH (10 KT):0
Visibility: 10 mile(s):0
Sky conditions: partly cloudy
Temperature: 77 F (25 C)
Dew Point: 64 F (18 C)
Relative Humidity: 65%
Pressure (altimeter): 30.08 in. Hg (1018 hPa)
ob: KEOK 161815Z AUTO 07010KT 10SM SCT034 SCT042 25/18 A3008 RMK A01
cycle: 18

Station Type Date Time Source
KEOK TAF UTC NOAA

Error!

Example: see airport list